Aviation Digital Data Service (ADDS)

Output produced by METARs form (1204 UTC 24 February 2018)
found at http://www.aviationweather.gov/adds/metars/
 
DAUA 241100Z 22015KT 9000 SCT046 SCT133 21/07 Q1008
TAF DAUA 241100Z 2412/2512 22018KT 6000 SCT046 
     PROB40 
     TEMPO 2412/2418 22020G30KT 2000 DRSA 
     BECMG 2419/2422 22010KT
       
DABB 241130Z 04004KT 9999 FEW023 13/06 Q1006
TAF AMD DABB 240635Z 2406/2506 23005KT 9999 FEW020TCU 
     PROB40 
     TEMPO 2406/2409 1200 BR BKN008 
     BECMG 2413/2415 04012KT 
     TEMPO 2420/2506 5000 -RA BKN015 FEW023CB
       
DABT 241100Z 34002KT 8000 FEW026 SCT090 06/02 Q1005
TAF DABT 241100Z 2412/2512 32012KT 8000 FEW020 SCT090 
     PROB40 
     TEMPO 2418/2506 5000 -RA BKN015 FEW020TCU
       
DAOR 241100Z 30010KT CAVOK 16/M00 Q1004
TAF DAOR 241100Z 2412/2421 26012KT 9999 FEW033 
     PROB30 
     TEMPO 2412/2415 26022KT 5000 DU FEW033CB 
     PROB40 
     TEMPO 2416/2420 5000 -RA FEW030CB
       
DAAE 241100Z 08004KT 9999 FEW023 13/08 Q1007
TAF DAAE 241100Z 2412/2512 22009KT 9999 FEW020 
     BECMG 2413/2415 04013KT 
     TEMPO 2418/2506 5000 RA BKN015 FEW023CB 
     BECMG 2500/2502 34008KT 
     BECMG 2507/2509 27013KT 
     PROB40 
     TEMPO 2507/2512 28015G25KT
       
DAUB 241100Z 12019KT 9999 SCT033 BKN100 16/03 Q1004
TAF DAUB 241100Z 2412/2512 13016KT 9999 SCT033 BKN100 
     PROB30 
     TEMPO 2412/2419 14017G27KT 2000 DRSA 
     BECMG 2421/2424 35012KT 
     PROB40 
     TEMPO 2500/2512 33015G25KT
       
DATM 241100Z 04017KT 5000 DRSA SCT046 BKN100 21/08 Q1012
TAF DATM 241100Z 2412/2421 04020KT 5000 DRSA SCT040 BKN100 
     PROB30 
     TEMPO 2412/2418 04020G30KT 1000 BLSA FEW040CB 
     PROB40 
     TEMPO 2416/2420 -TSRA FEW040CB
       
DAAD 241100Z 05004KT 8000 SCT046 SCT100 11/03 Q1004
TAF DAAD 241100Z 2412/2421 04008KT 8000 SCT033 SCT100
       
DAOI 241100Z 06005KT CAVOK 09/02 Q1006
TAF DAOI 241100Z 2412/2512 01010KT CAVOK 
     BECMG 2418/2420 VRB02KT 9999 SCT030 
     BECMG 2509/2511 CAVOK
       
DABC 241130Z 03005KT 9999 FEW030 SCT200 10/04 Q1005
TAF DABC 241100Z 2412/2512 03012KT 9999 FEW020 SCT200 
     TEMPO 2418/2506 5000 RA BKN015 FEW023TCU 
     PROB40 
     TEMPO 2506/2512 26008KT 5000 -RA BKN015 FEW020TCU
       
DAAG 241130Z 04008KT 010V070 9999 FEW020 14/05 Q1006
TAF DAAG 241100Z 2412/2512 06010KT 9999 FEW020 
     PROB30 
     TEMPO 2414/2421 FEW023TCU 
     BECMG 2418/2421 VRB02KT 
     PROB30 
     TEMPO 2500/2506 4000 BR
       
DAAJ 241100Z 18003KT 8000 NSC 23/M04 Q1017
TAF DAAJ 241100Z 2412/2512 VRB02KT 8000 NSC 
     PROB30 2412/2418 4000 HZ 
     PROB30 
     TEMPO 2500/2506 32015G25KT 5000 -TSRA FEW040CB
       
DAUE 241100Z 22026KT 0500 BLSA NSC 19/10 Q1006
DAUO 241100Z 19005KT 6000 SCT030 SCT100 17/00 Q1005
TAF DAUO 241100Z 2412/2421 21010KT 6000 SCT030 BKN100 
     PROB40 
     TEMPO 2412/2415 21015G25KT 3000 DRSA FEW030CB 
     PROB30 
     TEMPO 2412/2415 5000 -RA FEW030CB 
     BECMG 2415/2418 07012KT
       
DAUG 241100Z 25020KT 5000 DRSA FEW046 SCT100 20/M04 Q1003
TAF DAUG 241100Z 2412/2512 20018KT 6000 SCT046 SCT090 
     PROB40 2412/2416 24020G30KT 2000 DRSA FEW046CB 
     BECMG 2422/2401 36012KT
       
DAUH 241130Z 17020G31KT 2000 DRSA BKN040 SCT100 21/07 Q1005
TAF DAUH 241100Z 2412/2512 16020KT 3000 DRSA NSC 
     PROB40 2412/2418 20020G35KT 0800 BLSA 
     BECMG 2418/2421 22012KT 
     TEMPO 2418/2424 4000 HZ 
     PROB30 
     TEMPO 2423/2501 22015G25KT 5000
       
DAAP 241100Z 24014KT 8000 SCT040 SCT080 23/01 Q1013
TAF DAAP 241100Z 2412/2421 24012KT 8000 SCT040 SCT080 
     PROB40 
     TEMPO 2412/2415 24022KT 3000 DRSA FEW040CB 
     PROB30 
     TEMPO 2416/2420 24015G25KT 5000 -TSRA FEW033CB
       
DAUZ 241000Z 15012KT CAVOK 18/M07 Q1012
TAF DAUZ 240500Z 2406/2506 06008KT CAVOK 
     BECMG 2407/2410 14010KT 
     BECMG 2413/2415 24014KT 
     PROB40 
     TEMPO 2422/2503 24024KT 3000 DRSA FEW040CB
       
DAUI 241100Z 21011KT 9999 BKN046 SCT050 18/07 Q1011
TAF DAUI 241100Z 2412/2512 20015KT 9999 BKN046 
     PROB40 
     TEMPO 2412/2420 24015G30KT 3000 DRSA FEW046CB 
     PROB30 
     TEMPO 2412/2418 4000 -TSRA FEW046CB
       
DAAV 241100Z 01005KT 9999 FEW020 14/05 Q1006
TAF DAAV 241100Z 2412/2512 01013KT 9999 FEW020 
     PROB40 
     TEMPO 2412/2418 FEW023TCU 
     TEMPO 2418/2506 5000 RA BKN015 FEW023CB 
     BECMG 2500/2502 31008KT 
     BECMG 2507/2509 27013KT 
     PROB40 
     TEMPO 2507/2512 28015G25KT
       
DAUL 241100Z 08014KT 9000 SCT030 SCT080 09/M01 Q1004
TAF DAUL 241100Z 2412/2421 22014KT 8000 SCT030 SCT080 
     PROB30 
     TEMPO 2412/2415 FEW026CB 
     BECMG 2416/2419 34016KT
       
DAOV 241100Z 00000KT 9999 FEW030 SCT233 10/05 Q1004
TAF DAOV 241100Z 2412/2421 34010KT 9999 FEW030
       
DAAY 241100Z 24014KT CAVOK 13/02 Q1005
TAF DAAY 241100Z 2412/2421 34012KT CAVOK 
     TEMPO 2412/2418 26018KT 6000 NSC
       
DAOO 241130Z 05002KT 9999 SCT026 14/06 Q1006
TAF DAOO 241100Z 2412/2512 35010KT 9999 SCT026 
     BECMG 2421/2423 VRB02KT 
     PROB40 
     TEMPO 2503/2508 3000 BR FEW010 
     BECMG 2509/2512 SCT030
       
DAOL 241100Z 02004KT 9999 FEW030 12/07 Q1007
DAUU 241120Z 20026KT 1000 BLSA SCT046 SCT100 22/M04 Q1003
TAF DAUU 241100Z 2412/2421 22022KT 2000 DRSA SCT046 SCT100 
     TEMPO 2412/2414 22022G32KT 0800 BLSA FEW033CB 
     BECMG 2418/2421 22012KT 6000 NSW
       
DAAS 241100Z 08010KT 9999 FEW030 07/02 Q1005
TAF DAAS 241100Z 2412/2512 04012KT 9999 FEW030 
     PROB40 
     TEMPO 2418/2506 5000 RA BKN015 FEW023CB 
     BECMG 2421/2423 32007KT 
     PROB40 
     TEMPO 2506/2512 5000 -RA BKN015 FEW020TCU 
     BECMG 2510/2512 02011KT
       
DAAT 241130Z 22005KT 160V280 CAVOK 23/M06 Q1016
TAF DAAT 241100Z 2412/2512 22014KT 9999 FEW040 
     PROB40 
     TEMPO 2412/2419 24015G25KT 5000 DRSA FEW040CB 
     BECMG 2419/2422 32012KT 
     PROB40 
     TEMPO 2420/2502 32015G25KT 5000 -TSRA FEW040CB
       
DABS 241100Z 30002KT 9999 FEW040 BKN100 11/01 Q1005
TAF DABS 241100Z 2412/2512 23013KT 9999 FEW023 BKN100 
     PROB40 
     TEMPO 2418/2506 5000 RA BKN015 FEW020TCU 
     BECMG 2421/2423 35008KT 
     BECMG 2502/2504 01013KT
       
DAOB 241100Z 02004KT 9999 FEW030 06/02 Q1004
TAF DAOB 241100Z 2412/2512 VRB02KT FEW030 
     BECMG 2412/2415 34012KT 
     BECMG 2419/2421 VRB02KT 
     PROB30 
     TEMPO 2504/2506 4000 BR
       
DAFH 241100Z 24016KT 9999 SCT026 SCT040 16/M00 Q1004
TAF DAFH 241100Z 2412/2421 24015KT 9999 SCT026 SCT040 
     PROB30 
     TEMPO 2412/2416 24015G25KT 3000 DRSA FEW030CB
       
DAUT 241100Z 22023KT 5000 DRSA NSC 20/08 Q1007
TAF DAUT 241100Z 2412/2421 24022KT 5000 DRSA NSC 
     PROB40 
     TEMPO 2412/2415 24022G32KT 0800 BLSA
       
DAOF 241100Z 25016KT 9999 BKN040 17/07 Q1008
TAF DAOF 241100Z 2412/2421 24015KT 9999 SCT040 BKN100 
     PROB30 
     TEMPO 2412/2416 24020G30KT 3000 DRSA FEW040CB 
     PROB40 
     TEMPO 2412/2418 24015G25KT 5000 -TSRA FEW040CB
       
DAON 241130Z 32003KT 9999 SCT026 12/04 Q1007
TAF DAON 241100Z 2412/2512 36010KT 9999 SCT026 
     BECMG 2421/2423 VRB02KT FEW020 
     PROB40 
     TEMPO 2502/2508 3000 BR 
     BECMG 2508/2511 SCT030
       
DAUK 241100Z 17011KT 6000 SCT040 SCT100 19/02 Q1004
TAF DAUK 241100Z 2412/2421 22012KT 9999 SCT040 BKN100 
     PROB30 
     TEMPO 2412/2414 22015G25KT 3000 DRSA FEW033CB 
     PROB30 
     TEMPO 2412/2415 5000 -RA FEW030CB 
     BECMG 2418/2421 01010KT